sensor_id;sensor_type;location;lat;lon;timestamp;temperature;humidity
17845;DHT22;9047;53.486;10.218;2022-12-16T00:01:25;-1.30;99.90
17845;DHT22;9047;53.486;10.218;2022-12-16T00:04:01;-1.40;99.90
17845;DHT22;9047;53.486;10.218;2022-12-16T00:06:31;-1.30;99.90
17845;DHT22;9047;53.486;10.218;2022-12-16T00:08:59;-1.30;99.90
17845;DHT22;9047;53.486;10.218;2022-12-16T00:11:26;-1.30;99.90
17845;DHT22;9047;53.486;10.218;2022-12-16T00:13:57;-1.30;99.90
17845;DHT22;9047;53.486;10.218;2022-12-16T00:16:25;-1.30;99.90
17845;DHT22;9047;53.486;10.218;2022-12-16T00:18:54;-1.30;99.90
17845;DHT22;9047;53.486;10.218;2022-12-16T00:21:26;-1.20;99.90
17845;DHT22;9047;53.486;10.218;2022-12-16T00:23:54;-1.20;99.90
17845;DHT22;9047;53.486;10.218;2022-12-16T00:26:22;-1.20;99.90
17845;DHT22;9047;53.486;10.218;2022-12-16T00:28:56;-1.20;99.90
17845;DHT22;9047;53.486;10.218;2022-12-16T00:31:24;-1.20;99.90
17845;DHT22;9047;53.486;10.218;2022-12-16T00:33:55;-1.10;99.90
17845;DHT22;9047;53.486;10.218;2022-12-16T00:36:25;-1.20;99.90
17845;DHT22;9047;53.486;10.218;2022-12-16T00:38:52;-1.20;99.90
17845;DHT22;9047;53.486;10.218;2022-12-16T00:41:19;-1.20;99.90
17845;DHT22;9047;53.486;10.218;2022-12-16T00:43:47;-1.10;99.90
17845;DHT22;9047;53.486;10.218;2022-12-16T00:46:14;-1.10;99.90
17845;DHT22;9047;53.486;10.218;2022-12-16T00:48:42;-1.10;99.90
17845;DHT22;9047;53.486;10.218;2022-12-16T00:51:15;-1.10;99.90
17845;DHT22;9047;53.486;10.218;2022-12-16T00:53:47;-1.10;99.90
17845;DHT22;9047;53.486;10.218;2022-12-16T00:56:15;-1.10;99.90
17845;DHT22;9047;53.486;10.218;2022-12-16T00:58:43;-1.10;99.90
17845;DHT22;9047;53.486;10.218;2022-12-16T01:01:11;-1.10;99.90
17845;DHT22;9047;53.486;10.218;2022-12-16T01:03:39;-1.10;99.90
17845;DHT22;9047;53.486;10.218;2022-12-16T01:06:08;-1.10;99.90
17845;DHT22;9047;53.486;10.218;2022-12-16T01:08:37;-1.10;99.90
17845;DHT22;9047;53.486;10.218;2022-12-16T01:11:09;-1.00;99.90
17845;DHT22;9047;53.486;10.218;2022-12-16T01:13:36;-1.00;99.90
17845;DHT22;9047;53.486;10.218;2022-12-16T01:16:03;-1.00;99.90
17845;DHT22;9047;53.486;10.218;2022-12-16T01:18:32;-1.00;99.90
17845;DHT22;9047;53.486;10.218;2022-12-16T01:21:02;-1.00;99.90
17845;DHT22;9047;53.486;10.218;2022-12-16T01:23:29;-1.00;99.90
17845;DHT22;9047;53.486;10.218;2022-12-16T01:26:00;-1.00;99.90
17845;DHT22;9047;53.486;10.218;2022-12-16T01:28:29;-1.00;99.90
17845;DHT22;9047;53.486;10.218;2022-12-16T01:30:58;-1.00;99.90
17845;DHT22;9047;53.486;10.218;2022-12-16T01:33:30;-1.00;99.90
17845;DHT22;9047;53.486;10.218;2022-12-16T01:36:01;-1.00;99.90
17845;DHT22;9047;53.486;10.218;2022-12-16T01:38:33;-1.00;99.90
17845;DHT22;9047;53.486;10.218;2022-12-16T01:41:01;-1.00;99.90
17845;DHT22;9047;53.486;10.218;2022-12-16T01:43:32;-1.00;99.90
17845;DHT22;9047;53.486;10.218;2022-12-16T01:46:02;-1.00;99.90
17845;DHT22;9047;53.486;10.218;2022-12-16T01:48:35;-1.00;99.90
17845;DHT22;9047;53.486;10.218;2022-12-16T01:51:07;-1.00;99.90
17845;DHT22;9047;53.486;10.218;2022-12-16T01:53:35;-1.00;99.90
17845;DHT22;9047;53.486;10.218;2022-12-16T01:56:04;-1.00;99.90
17845;DHT22;9047;53.486;10.218;2022-12-16T01:58:38;-1.00;99.90
17845;DHT22;9047;53.486;10.218;2022-12-16T02:01:07;-1.00;99.90
17845;DHT22;9047;53.486;10.218;2022-12-16T02:03:35;-1.00;99.90
17845;DHT22;9047;53.486;10.218;2022-12-16T02:06:05;-1.00;99.90
17845;DHT22;9047;53.486;10.218;2022-12-16T02:08:32;-1.00;99.90
17845;DHT22;9047;53.486;10.218;2022-12-16T02:11:21;-1.00;99.90
17845;DHT22;9047;53.486;10.218;2022-12-16T02:16:52;-1.10;99.90
17845;DHT22;9047;53.486;10.218;2022-12-16T02:22:22;-1.10;99.90
17845;DHT22;9047;53.486;10.218;2022-12-16T02:28:01;-1.20;99.90
17845;DHT22;9047;53.486;10.218;2022-12-16T02:30:59;-1.20;99.90
17845;DHT22;9047;53.486;10.218;2022-12-16T02:33:46;-1.20;99.90
17845;DHT22;9047;53.486;10.218;2022-12-16T02:36:23;-1.20;99.90
17845;DHT22;9047;53.486;10.218;2022-12-16T02:38:56;-1.20;99.90
17845;DHT22;9047;53.486;10.218;2022-12-16T02:41:30;-1.30;99.90
17845;DHT22;9047;53.486;10.218;2022-12-16T02:44:03;-1.30;99.90
17845;DHT22;9047;53.486;10.218;2022-12-16T02:46:38;-1.30;99.90
17845;DHT22;9047;53.486;10.218;2022-12-16T02:49:34;-1.30;99.90
17845;DHT22;9047;53.486;10.218;2022-12-16T02:51:58;-1.40;99.90
17845;DHT22;9047;53.486;10.218;2022-12-16T02:54:27;-1.40;99.90
17845;DHT22;9047;53.486;10.218;2022-12-16T02:57:03;-1.40;99.90
17845;DHT22;9047;53.486;10.218;2022-12-16T02:59:41;-1.40;99.90
17845;DHT22;9047;53.486;10.218;2022-12-16T03:02:15;-1.40;99.90
17845;DHT22;9047;53.486;10.218;2022-12-16T03:04:49;-1.40;99.90
17845;DHT22;9047;53.486;10.218;2022-12-16T03:07:19;-1.40;99.90
17845;DHT22;9047;53.486;10.218;2022-12-16T03:09:49;-1.50;99.90
17845;DHT22;9047;53.486;10.218;2022-12-16T03:12:19;-1.50;99.90
17845;DHT22;9047;53.486;10.218;2022-12-16T03:14:49;-1.50;99.90
17845;DHT22;9047;53.486;10.218;2022-12-16T03:17:20;-1.50;99.90
17845;DHT22;9047;53.486;10.218;2022-12-16T03:19:51;-1.60;99.90
17845;DHT22;9047;53.486;10.218;2022-12-16T03:22:20;-1.60;99.90
17845;DHT22;9047;53.486;10.218;2022-12-16T03:24:49;-1.60;99.90
17845;DHT22;9047;53.486;10.218;2022-12-16T03:27:20;-1.60;99.90
17845;DHT22;9047;53.486;10.218;2022-12-16T03:29:52;-1.60;99.90
17845;DHT22;9047;53.486;10.218;2022-12-16T03:32:28;-1.60;99.90
17845;DHT22;9047;53.486;10.218;2022-12-16T03:35:00;-1.60;99.90
17845;DHT22;9047;53.486;10.218;2022-12-16T03:37:32;-1.60;99.90
17845;DHT22;9047;53.486;10.218;2022-12-16T03:40:04;-1.70;99.90
17845;DHT22;9047;53.486;10.218;2022-12-16T03:42:34;-1.70;99.90
17845;DHT22;9047;53.486;10.218;2022-12-16T03:45:03;-1.90;99.90
17845;DHT22;9047;53.486;10.218;2022-12-16T03:47:32;-1.80;99.90
17845;DHT22;9047;53.486;10.218;2022-12-16T03:49:59;-1.90;99.90
17845;DHT22;9047;53.486;10.218;2022-12-16T03:52:26;-2.00;99.90
17845;DHT22;9047;53.486;10.218;2022-12-16T03:54:53;-2.10;99.90
17845;DHT22;9047;53.486;10.218;2022-12-16T03:57:21;-2.20;99.90
17845;DHT22;9047;53.486;10.218;2022-12-16T03:59:49;-2.30;99.90
17845;DHT22;9047;53.486;10.218;2022-12-16T04:02:16;-2.40;99.90
17845;DHT22;9047;53.486;10.218;2022-12-16T04:04:45;-2.40;99.90
17845;DHT22;9047;53.486;10.218;2022-12-16T04:07:12;-2.50;99.90
17845;DHT22;9047;53.486;10.218;2022-12-16T04:09:50;-2.60;99.90
17845;DHT22;9047;53.486;10.218;2022-12-16T04:12:20;-2.70;99.90
17845;DHT22;9047;53.486;10.218;2022-12-16T04:15:05;-2.80;99.90
17845;DHT22;9047;53.486;10.218;2022-12-16T04:17:49;-2.90;99.90
17845;DHT22;9047;53.486;10.218;2022-12-16T04:20:39;-2.90;99.90
17845;DHT22;9047;53.486;10.218;2022-12-16T04:23:28;-3.00;99.90
17845;DHT22;9047;53.486;10.218;2022-12-16T04:26:27;-3.10;99.90
17845;DHT22;9047;53.486;10.218;2022-12-16T04:28:54;-3.20;99.90
17845;DHT22;9047;53.486;10.218;2022-12-16T04:31:21;-3.20;99.90
17845;DHT22;9047;53.486;10.218;2022-12-16T04:33:48;-3.30;99.90
17845;DHT22;9047;53.486;10.218;2022-12-16T04:36:34;-3.40;99.90
17845;DHT22;9047;53.486;10.218;2022-12-16T04:39:18;-3.40;99.90
17845;DHT22;9047;53.486;10.218;2022-12-16T04:42:02;-3.50;99.90
17845;DHT22;9047;53.486;10.218;2022-12-16T04:44:49;-3.40;99.90
17845;DHT22;9047;53.486;10.218;2022-12-16T04:47:35;-3.50;99.90
17845;DHT22;9047;53.486;10.218;2022-12-16T04:50:19;-3.50;99.90
17845;DHT22;9047;53.486;10.218;2022-12-16T04:53:05;-3.50;99.90
17845;DHT22;9047;53.486;10.218;2022-12-16T04:55:49;-3.60;99.90
17845;DHT22;9047;53.486;10.218;2022-12-16T04:58:45;-3.60;99.90
17845;DHT22;9047;53.486;10.218;2022-12-16T05:01:30;-3.60;99.90
17845;DHT22;9047;53.486;10.218;2022-12-16T05:04:15;-3.60;99.90
17845;DHT22;9047;53.486;10.218;2022-12-16T05:07:00;-3.60;99.90
17845;DHT22;9047;53.486;10.218;2022-12-16T05:09:46;-3.60;99.90
17845;DHT22;9047;53.486;10.218;2022-12-16T05:12:31;-3.60;99.90
17845;DHT22;9047;53.486;10.218;2022-12-16T05:15:16;-3.60;99.90
17845;DHT22;9047;53.486;10.218;2022-12-16T05:18:07;-3.70;99.90
17845;DHT22;9047;53.486;10.218;2022-12-16T05:20:52;-3.70;99.90
17845;DHT22;9047;53.486;10.218;2022-12-16T05:23:37;-3.70;99.90
17845;DHT22;9047;53.486;10.218;2022-12-16T05:26:23;-3.70;99.90
17845;DHT22;9047;53.486;10.218;2022-12-16T05:29:08;-3.70;99.90
17845;DHT22;9047;53.486;10.218;2022-12-16T05:31:53;-3.70;99.90
17845;DHT22;9047;53.486;10.218;2022-12-16T05:34:37;-3.60;99.90
17845;DHT22;9047;53.486;10.218;2022-12-16T05:37:22;-3.70;99.90
17845;DHT22;9047;53.486;10.218;2022-12-16T05:40:08;-3.70;99.90
17845;DHT22;9047;53.486;10.218;2022-12-16T05:42:54;-3.70;99.90
17845;DHT22;9047;53.486;10.218;2022-12-16T05:45:39;-3.80;99.90
17845;DHT22;9047;53.486;10.218;2022-12-16T05:48:23;-3.80;99.90
17845;DHT22;9047;53.486;10.218;2022-12-16T05:51:10;-3.80;99.90
17845;DHT22;9047;53.486;10.218;2022-12-16T05:53:54;-3.80;99.90
17845;DHT22;9047;53.486;10.218;2022-12-16T05:56:39;-3.80;99.90
17845;DHT22;9047;53.486;10.218;2022-12-16T05:59:25;-3.80;99.90
17845;DHT22;9047;53.486;10.218;2022-12-16T06:02:09;-3.90;99.90
17845;DHT22;9047;53.486;10.218;2022-12-16T06:04:54;-3.90;99.90
17845;DHT22;9047;53.486;10.218;2022-12-16T06:07:40;-3.90;99.90
17845;DHT22;9047;53.486;10.218;2022-12-16T06:10:24;-3.90;99.90
17845;DHT22;9047;53.486;10.218;2022-12-16T06:13:05;-3.90;99.90
17845;DHT22;9047;53.486;10.218;2022-12-16T06:16:02;-3.90;99.90
17845;DHT22;9047;53.486;10.218;2022-12-16T06:18:46;-4.00;99.90
17845;DHT22;9047;53.486;10.218;2022-12-16T06:21:31;-4.00;99.90
17845;DHT22;9047;53.486;10.218;2022-12-16T06:24:15;-4.00;99.90
17845;DHT22;9047;53.486;10.218;2022-12-16T06:27:01;-4.10;99.90
17845;DHT22;9047;53.486;10.218;2022-12-16T06:29:46;-4.10;99.90
17845;DHT22;9047;53.486;10.218;2022-12-16T06:32:32;-4.10;99.90
17845;DHT22;9047;53.486;10.218;2022-12-16T06:35:16;-4.10;99.90
17845;DHT22;9047;53.486;10.218;2022-12-16T06:38:01;-4.00;99.90
17845;DHT22;9047;53.486;10.218;2022-12-16T06:40:45;-3.90;99.90
17845;DHT22;9047;53.486;10.218;2022-12-16T06:43:29;-3.70;99.90
17845;DHT22;9047;53.486;10.218;2022-12-16T06:46:13;-3.70;99.90
17845;DHT22;9047;53.486;10.218;2022-12-16T06:48:59;-3.60;99.90
17845;DHT22;9047;53.486;10.218;2022-12-16T06:51:43;-3.40;99.90
17845;DHT22;9047;53.486;10.218;2022-12-16T06:54:28;-3.30;99.90
17845;DHT22;9047;53.486;10.218;2022-12-16T06:57:12;-3.30;99.90
17845;DHT22;9047;53.486;10.218;2022-12-16T06:59:56;-3.30;99.90
17845;DHT22;9047;53.486;10.218;2022-12-16T07:02:40;-3.30;99.90
17845;DHT22;9047;53.486;10.218;2022-12-16T07:05:27;-3.30;99.90
17845;DHT22;9047;53.486;10.218;2022-12-16T07:08:12;-3.30;99.90
17845;DHT22;9047;53.486;10.218;2022-12-16T07:10:55;-3.40;99.90
17845;DHT22;9047;53.486;10.218;2022-12-16T07:13:40;-3.40;99.90
17845;DHT22;9047;53.486;10.218;2022-12-16T07:16:24;-3.50;99.90
17845;DHT22;9047;53.486;10.218;2022-12-16T07:19:08;-3.60;99.90
17845;DHT22;9047;53.486;10.218;2022-12-16T07:21:54;-3.60;99.90
17845;DHT22;9047;53.486;10.218;2022-12-16T07:24:40;-3.70;99.90
17845;DHT22;9047;53.486;10.218;2022-12-16T07:27:24;-3.80;99.90
17845;DHT22;9047;53.486;10.218;2022-12-16T07:30:09;-3.90;99.90
17845;DHT22;9047;53.486;10.218;2022-12-16T07:32:55;-4.00;99.90
17845;DHT22;9047;53.486;10.218;2022-12-16T07:35:41;-4.00;99.90
17845;DHT22;9047;53.486;10.218;2022-12-16T07:38:27;-4.10;99.90
17845;DHT22;9047;53.486;10.218;2022-12-16T07:41:11;-4.10;99.90
17845;DHT22;9047;53.486;10.218;2022-12-16T07:43:56;-4.10;99.90
17845;DHT22;9047;53.486;10.218;2022-12-16T07:46:40;-4.20;99.90
17845;DHT22;9047;53.486;10.218;2022-12-16T07:49:24;-4.20;99.90
17845;DHT22;9047;53.486;10.218;2022-12-16T07:52:08;-4.30;99.90
17845;DHT22;9047;53.486;10.218;2022-12-16T07:54:56;-4.30;99.90
17845;DHT22;9047;53.486;10.218;2022-12-16T07:58:01;-4.20;99.90
17845;DHT22;9047;53.486;10.218;2022-12-16T08:00:45;-4.20;99.90
17845;DHT22;9047;53.486;10.218;2022-12-16T08:03:34;-4.20;99.90
17845;DHT22;9047;53.486;10.218;2022-12-16T08:06:18;-4.10;99.90
17845;DHT22;9047;53.486;10.218;2022-12-16T08:09:03;-4.00;99.90
17845;DHT22;9047;53.486;10.218;2022-12-16T08:11:51;-3.80;99.90
17845;DHT22;9047;53.486;10.218;2022-12-16T08:14:35;-3.70;99.90
17845;DHT22;9047;53.486;10.218;2022-12-16T08:17:19;-3.60;99.90
17845;DHT22;9047;53.486;10.218;2022-12-16T08:20:04;-3.40;99.90
17845;DHT22;9047;53.486;10.218;2022-12-16T08:22:49;-3.30;99.90
17845;DHT22;9047;53.486;10.218;2022-12-16T08:25:33;-3.20;99.90
17845;DHT22;9047;53.486;10.218;2022-12-16T08:28:21;-3.00;99.90
17845;DHT22;9047;53.486;10.218;2022-12-16T08:31:06;-2.90;99.90
17845;DHT22;9047;53.486;10.218;2022-12-16T08:33:50;-2.80;99.90
17845;DHT22;9047;53.486;10.218;2022-12-16T08:36:34;-2.70;99.90
17845;DHT22;9047;53.486;10.218;2022-12-16T08:39:21;-2.60;99.90
17845;DHT22;9047;53.486;10.218;2022-12-16T08:42:05;-2.50;99.90
17845;DHT22;9047;53.486;10.218;2022-12-16T08:44:50;-2.50;99.90
17845;DHT22;9047;53.486;10.218;2022-12-16T08:47:34;-2.40;99.90
17845;DHT22;9047;53.486;10.218;2022-12-16T08:50:18;-2.40;99.90
17845;DHT22;9047;53.486;10.218;2022-12-16T08:53:02;-2.40;99.90
17845;DHT22;9047;53.486;10.218;2022-12-16T08:55:49;-2.40;99.90
17845;DHT22;9047;53.486;10.218;2022-12-16T08:58:34;-2.30;99.90
17845;DHT22;9047;53.486;10.218;2022-12-16T09:01:23;-2.30;99.90
17845;DHT22;9047;53.486;10.218;2022-12-16T09:04:10;-2.20;99.90
17845;DHT22;9047;53.486;10.218;2022-12-16T09:06:55;-2.20;99.90
17845;DHT22;9047;53.486;10.218;2022-12-16T09:09:39;-2.10;99.90
17845;DHT22;9047;53.486;10.218;2022-12-16T09:12:24;-2.10;99.90
17845;DHT22;9047;53.486;10.218;2022-12-16T09:15:09;-2.00;99.90
17845;DHT22;9047;53.486;10.218;2022-12-16T09:17:57;-2.00;99.90
17845;DHT22;9047;53.486;10.218;2022-12-16T09:20:41;-2.00;99.90
17845;DHT22;9047;53.486;10.218;2022-12-16T09:23:26;-2.00;99.90
17845;DHT22;9047;53.486;10.218;2022-12-16T09:26:10;-2.00;99.90
17845;DHT22;9047;53.486;10.218;2022-12-16T09:28:54;-2.00;99.90
17845;DHT22;9047;53.486;10.218;2022-12-16T09:31:38;-1.90;99.90
17845;DHT22;9047;53.486;10.218;2022-12-16T09:34:26;-1.90;99.90
17845;DHT22;9047;53.486;10.218;2022-12-16T09:37:11;-1.90;99.90
17845;DHT22;9047;53.486;10.218;2022-12-16T09:39:55;-1.90;99.90
17845;DHT22;9047;53.486;10.218;2022-12-16T09:42:48;-1.90;99.90
17845;DHT22;9047;53.486;10.218;2022-12-16T09:45:41;-1.80;99.90
17845;DHT22;9047;53.486;10.218;2022-12-16T09:48:32;-1.80;99.90
17845;DHT22;9047;53.486;10.218;2022-12-16T09:51:19;-1.70;99.90
17845;DHT22;9047;53.486;10.218;2022-12-16T09:54:05;-1.70;99.90
17845;DHT22;9047;53.486;10.218;2022-12-16T09:56:53;-1.70;99.90
17845;DHT22;9047;53.486;10.218;2022-12-16T09:59:54;-1.70;99.90
17845;DHT22;9047;53.486;10.218;2022-12-16T10:02:55;-1.70;99.90
17845;DHT22;9047;53.486;10.218;2022-12-16T10:05:49;-1.60;99.90
17845;DHT22;9047;53.486;10.218;2022-12-16T10:08:43;-1.50;99.90
17845;DHT22;9047;53.486;10.218;2022-12-16T10:11:40;-1.30;99.90
17845;DHT22;9047;53.486;10.218;2022-12-16T10:14:43;-1.40;99.90
17845;DHT22;9047;53.486;10.218;2022-12-16T10:17:42;-1.40;99.90
17845;DHT22;9047;53.486;10.218;2022-12-16T10:20:32;-1.40;99.90
17845;DHT22;9047;53.486;10.218;2022-12-16T10:23:24;-1.30;99.90
17845;DHT22;9047;53.486;10.218;2022-12-16T10:26:16;-1.20;99.90
17845;DHT22;9047;53.486;10.218;2022-12-16T10:29:05;-1.20;99.90
17845;DHT22;9047;53.486;10.218;2022-12-16T10:31:56;-1.20;99.90
17845;DHT22;9047;53.486;10.218;2022-12-16T10:34:41;-1.10;99.90
17845;DHT22;9047;53.486;10.218;2022-12-16T10:37:32;-1.10;99.90
17845;DHT22;9047;53.486;10.218;2022-12-16T10:40:18;-1.10;99.90
17845;DHT22;9047;53.486;10.218;2022-12-16T10:43:10;-1.00;99.90
17845;DHT22;9047;53.486;10.218;2022-12-16T10:45:56;-1.00;99.90
17845;DHT22;9047;53.486;10.218;2022-12-16T10:48:41;-0.90;99.90
17845;DHT22;9047;53.486;10.218;2022-12-16T10:51:27;-0.90;99.90
17845;DHT22;9047;53.486;10.218;2022-12-16T10:54:29;-0.90;99.90
17845;DHT22;9047;53.486;10.218;2022-12-16T10:57:23;-0.90;99.90
17845;DHT22;9047;53.486;10.218;2022-12-16T11:00:16;-0.90;99.90
17845;DHT22;9047;53.486;10.218;2022-12-16T11:03:19;-0.90;99.90
17845;DHT22;9047;53.486;10.218;2022-12-16T11:06:05;-0.90;99.90
17845;DHT22;9047;53.486;10.218;2022-12-16T11:08:50;-0.90;99.90
17845;DHT22;9047;53.486;10.218;2022-12-16T11:11:31;-0.70;99.90
17845;DHT22;9047;53.486;10.218;2022-12-16T11:14:21;-0.80;99.90
17845;DHT22;9047;53.486;10.218;2022-12-16T11:17:21;-0.80;99.90
17845;DHT22;9047;53.486;10.218;2022-12-16T11:20:21;-0.70;99.90
17845;DHT22;9047;53.486;10.218;2022-12-16T11:23:16;-0.70;99.90
17845;DHT22;9047;53.486;10.218;2022-12-16T11:26:12;-0.70;99.90
17845;DHT22;9047;53.486;10.218;2022-12-16T11:29:08;-0.60;99.90
17845;DHT22;9047;53.486;10.218;2022-12-16T11:32:00;-0.60;99.90
17845;DHT22;9047;53.486;10.218;2022-12-16T11:34:54;-0.60;99.90
17845;DHT22;9047;53.486;10.218;2022-12-16T11:37:42;-0.50;99.90
17845;DHT22;9047;53.486;10.218;2022-12-16T11:40:28;-0.50;99.90
17845;DHT22;9047;53.486;10.218;2022-12-16T11:43:15;-0.50;99.90
17845;DHT22;9047;53.486;10.218;2022-12-16T11:46:03;-0.40;99.90
17845;DHT22;9047;53.486;10.218;2022-12-16T11:48:53;-0.40;99.90
17845;DHT22;9047;53.486;10.218;2022-12-16T11:51:47;-0.40;99.90
17845;DHT22;9047;53.486;10.218;2022-12-16T11:54:38;-0.40;99.90
17845;DHT22;9047;53.486;10.218;2022-12-16T11:57:38;-0.30;99.90
17845;DHT22;9047;53.486;10.218;2022-12-16T12:00:24;-0.30;99.90
17845;DHT22;9047;53.486;10.218;2022-12-16T12:03:10;-0.20;99.90
17845;DHT22;9047;53.486;10.218;2022-12-16T12:06:00;-0.20;99.90
17845;DHT22;9047;53.486;10.218;2022-12-16T12:08:53;-0.20;99.90
17845;DHT22;9047;53.486;10.218;2022-12-16T12:11:46;-0.20;99.90
17845;DHT22;9047;53.486;10.218;2022-12-16T12:14:37;-0.10;99.90
17845;DHT22;9047;53.486;10.218;2022-12-16T12:17:31;-0.10;99.90
17845;DHT22;9047;53.486;10.218;2022-12-16T12:20:33;-0.10;99.90
17845;DHT22;9047;53.486;10.218;2022-12-16T12:23:28;-0.10;99.90
17845;DHT22;9047;53.486;10.218;2022-12-16T12:26:21;-0.10;99.90
17845;DHT22;9047;53.486;10.218;2022-12-16T12:29:13;-0.10;99.90
17845;DHT22;9047;53.486;10.218;2022-12-16T12:32:05;-0.10;99.90
17845;DHT22;9047;53.486;10.218;2022-12-16T12:34:58;-0.10;99.90
17845;DHT22;9047;53.486;10.218;2022-12-16T12:37:48;-0.10;99.90
17845;DHT22;9047;53.486;10.218;2022-12-16T12:40:44;-0.10;99.90
17845;DHT22;9047;53.486;10.218;2022-12-16T12:43:46;-0.10;99.90
17845;DHT22;9047;53.486;10.218;2022-12-16T12:46:36;0.00;99.90
17845;DHT22;9047;53.486;10.218;2022-12-16T12:49:25;0.00;99.90
17845;DHT22;9047;53.486;10.218;2022-12-16T12:52:23;-0.10;99.90
17845;DHT22;9047;53.486;10.218;2022-12-16T12:55:18;-0.10;99.90
17845;DHT22;9047;53.486;10.218;2022-12-16T12:58:06;-0.10;99.90
17845;DHT22;9047;53.486;10.218;2022-12-16T13:00:57;-0.10;99.90
17845;DHT22;9047;53.486;10.218;2022-12-16T13:03:47;-0.10;99.90
17845;DHT22;9047;53.486;10.218;2022-12-16T13:06:35;0.00;99.90
17845;DHT22;9047;53.486;10.218;2022-12-16T13:09:30;0.00;99.90
17845;DHT22;9047;53.486;10.218;2022-12-16T13:12:29;0.00;99.90
17845;DHT22;9047;53.486;10.218;2022-12-16T13:15:34;0.00;99.90
17845;DHT22;9047;53.486;10.218;2022-12-16T13:18:31;0.00;99.90
17845;DHT22;9047;53.486;10.218;2022-12-16T13:21:43;0.00;99.90
17845;DHT22;9047;53.486;10.218;2022-12-16T13:24:38;0.00;99.90
17845;DHT22;9047;53.486;10.218;2022-12-16T13:27:24;0.00;99.90
17845;DHT22;9047;53.486;10.218;2022-12-16T13:30:23;0.00;99.90
17845;DHT22;9047;53.486;10.218;2022-12-16T13:36:32;0.00;99.90
17845;DHT22;9047;53.486;10.218;2022-12-16T13:39:22;0.00;99.90
17845;DHT22;9047;53.486;10.218;2022-12-16T13:45:32;0.10;99.90
17845;DHT22;9047;53.486;10.218;2022-12-16T13:48:30;0.20;99.90
17845;DHT22;9047;53.486;10.218;2022-12-16T13:54:37;0.20;99.90
17845;DHT22;9047;53.486;10.218;2022-12-16T13:57:25;0.20;99.90
17845;DHT22;9047;53.486;10.218;2022-12-16T14:00:23;0.10;99.90
17845;DHT22;9047;53.486;10.218;2022-12-16T14:03:12;0.10;99.90
17845;DHT22;9047;53.486;10.218;2022-12-16T14:06:12;0.10;99.90
17845;DHT22;9047;53.486;10.218;2022-12-16T14:09:00;0.10;99.90
17845;DHT22;9047;53.486;10.218;2022-12-16T14:11:50;0.00;99.90
17845;DHT22;9047;53.486;10.218;2022-12-16T14:14:50;0.00;99.90
17845;DHT22;9047;53.486;10.218;2022-12-16T14:17:39;0.00;99.90
17845;DHT22;9047;53.486;10.218;2022-12-16T14:20:37;-0.10;99.90
17845;DHT22;9047;53.486;10.218;2022-12-16T14:23:30;-0.10;99.90
17845;DHT22;9047;53.486;10.218;2022-12-16T14:26:17;-0.10;99.90
17845;DHT22;9047;53.486;10.218;2022-12-16T14:29:18;-0.10;99.90
17845;DHT22;9047;53.486;10.218;2022-12-16T14:32:18;-0.20;99.90
17845;DHT22;9047;53.486;10.218;2022-12-16T14:35:03;-0.20;99.90
17845;DHT22;9047;53.486;10.218;2022-12-16T14:37:49;-0.30;99.90
17845;DHT22;9047;53.486;10.218;2022-12-16T14:40:34;-0.30;99.90
17845;DHT22;9047;53.486;10.218;2022-12-16T14:43:21;-0.30;99.90
17845;DHT22;9047;53.486;10.218;2022-12-16T14:46:24;-0.30;99.90
17845;DHT22;9047;53.486;10.218;2022-12-16T14:49:17;-0.40;99.90
17845;DHT22;9047;53.486;10.218;2022-12-16T14:52:01;-0.40;99.90
17845;DHT22;9047;53.486;10.218;2022-12-16T14:55:12;-0.40;99.90
17845;DHT22;9047;53.486;10.218;2022-12-16T14:58:09;-0.50;99.90
17845;DHT22;9047;53.486;10.218;2022-12-16T15:00:57;-0.50;99.90
17845;DHT22;9047;53.486;10.218;2022-12-16T15:03:47;-0.50;99.90
17845;DHT22;9047;53.486;10.218;2022-12-16T15:06:33;-0.50;99.90
17845;DHT22;9047;53.486;10.218;2022-12-16T15:09:28;-0.50;99.90
17845;DHT22;9047;53.486;10.218;2022-12-16T15:12:18;-0.60;99.90
17845;DHT22;9047;53.486;10.218;2022-12-16T15:15:08;-0.60;99.90
17845;DHT22;9047;53.486;10.218;2022-12-16T15:18:15;-0.60;99.90
17845;DHT22;9047;53.486;10.218;2022-12-16T15:21:02;-0.70;99.90
17845;DHT22;9047;53.486;10.218;2022-12-16T15:23:47;-0.70;99.90
17845;DHT22;9047;53.486;10.218;2022-12-16T15:26:32;-0.70;99.90
17845;DHT22;9047;53.486;10.218;2022-12-16T15:29:28;-0.70;99.90
17845;DHT22;9047;53.486;10.218;2022-12-16T15:32:28;-0.80;99.90
17845;DHT22;9047;53.486;10.218;2022-12-16T15:35:23;-0.80;99.90
17845;DHT22;9047;53.486;10.218;2022-12-16T15:38:11;-0.80;99.90
17845;DHT22;9047;53.486;10.218;2022-12-16T15:41:02;-0.80;99.90
17845;DHT22;9047;53.486;10.218;2022-12-16T15:43:47;-0.90;99.90
17845;DHT22;9047;53.486;10.218;2022-12-16T15:46:32;-0.90;99.90
17845;DHT22;9047;53.486;10.218;2022-12-16T15:49:19;-1.00;99.90
17845;DHT22;9047;53.486;10.218;2022-12-16T15:52:25;-1.00;99.90
17845;DHT22;9047;53.486;10.218;2022-12-16T15:55:26;-1.10;99.90
17845;DHT22;9047;53.486;10.218;2022-12-16T15:58:13;-1.20;99.90
17845;DHT22;9047;53.486;10.218;2022-12-16T16:00:59;-1.30;99.90
17845;DHT22;9047;53.486;10.218;2022-12-16T16:03:48;-1.40;99.90
17845;DHT22;9047;53.486;10.218;2022-12-16T16:06:35;-1.50;99.90
17845;DHT22;9047;53.486;10.218;2022-12-16T16:09:21;-1.40;99.90
17845;DHT22;9047;53.486;10.218;2022-12-16T16:12:11;-1.40;99.90
17845;DHT22;9047;53.486;10.218;2022-12-16T16:14:56;-1.30;99.90
17845;DHT22;9047;53.486;10.218;2022-12-16T16:17:40;-1.30;99.90
17845;DHT22;9047;53.486;10.218;2022-12-16T16:20:25;-1.20;99.90
17845;DHT22;9047;53.486;10.218;2022-12-16T16:23:10;-1.20;99.90
17845;DHT22;9047;53.486;10.218;2022-12-16T16:25:55;-1.20;99.90
17845;DHT22;9047;53.486;10.218;2022-12-16T16:28:53;-1.20;99.90
17845;DHT22;9047;53.486;10.218;2022-12-16T16:31:37;-1.30;99.90
17845;DHT22;9047;53.486;10.218;2022-12-16T16:34:22;-1.30;99.90
17845;DHT22;9047;53.486;10.218;2022-12-16T16:37:13;-1.30;99.90
17845;DHT22;9047;53.486;10.218;2022-12-16T16:40:10;-1.30;99.90
17845;DHT22;9047;53.486;10.218;2022-12-16T16:43:02;-1.30;99.90
17845;DHT22;9047;53.486;10.218;2022-12-16T16:46:02;-1.30;99.90
17845;DHT22;9047;53.486;10.218;2022-12-16T16:48:48;-1.30;99.90
17845;DHT22;9047;53.486;10.218;2022-12-16T16:51:34;-1.30;99.90
17845;DHT22;9047;53.486;10.218;2022-12-16T16:54:20;-1.30;99.90
17845;DHT22;9047;53.486;10.218;2022-12-16T16:57:13;-1.20;99.90
17845;DHT22;9047;53.486;10.218;2022-12-16T17:00:00;-1.20;99.90
17845;DHT22;9047;53.486;10.218;2022-12-16T17:02:48;-1.10;99.90
17845;DHT22;9047;53.486;10.218;2022-12-16T17:05:33;-1.10;99.90
17845;DHT22;9047;53.486;10.218;2022-12-16T17:08:18;-1.10;99.90
17845;DHT22;9047;53.486;10.218;2022-12-16T17:11:02;-1.00;99.90
17845;DHT22;9047;53.486;10.218;2022-12-16T17:13:46;-0.90;99.90
17845;DHT22;9047;53.486;10.218;2022-12-16T17:16:31;-1.00;99.90
17845;DHT22;9047;53.486;10.218;2022-12-16T17:19:16;-1.00;99.90
17845;DHT22;9047;53.486;10.218;2022-12-16T17:22:01;-1.00;99.90
17845;DHT22;9047;53.486;10.218;2022-12-16T17:24:47;-1.00;99.90
17845;DHT22;9047;53.486;10.218;2022-12-16T17:27:32;-0.90;99.90
17845;DHT22;9047;53.486;10.218;2022-12-16T17:30:19;-0.90;99.90
17845;DHT22;9047;53.486;10.218;2022-12-16T17:33:04;-0.90;99.90
17845;DHT22;9047;53.486;10.218;2022-12-16T17:35:52;-0.90;99.90
17845;DHT22;9047;53.486;10.218;2022-12-16T17:38:48;-0.90;99.90